createdAt,value
2023-05-28T00:00:42.652Z,21.99
2023-05-28T00:03:13.212Z,21.98
2023-05-28T00:05:43.230Z,21.97
2023-05-28T00:08:11.428Z,21.98
2023-05-28T00:10:38.369Z,21.96
2023-05-28T00:13:05.171Z,21.96
2023-05-28T00:15:31.980Z,21.95
2023-05-28T00:18:01.772Z,21.94
2023-05-28T00:20:28.749Z,21.94
2023-05-28T00:22:55.453Z,21.93
2023-05-28T00:25:22.683Z,21.93
2023-05-28T00:27:49.551Z,21.91
2023-05-28T00:30:19.443Z,21.91
2023-05-28T00:32:46.367Z,21.91
2023-05-28T00:35:13.197Z,21.91
2023-05-28T00:37:39.999Z,21.90
2023-05-28T00:40:07.138Z,21.89
2023-05-28T00:42:33.850Z,21.90
2023-05-28T00:45:06.230Z,21.89
2023-05-28T00:47:40.310Z,21.90
2023-05-28T00:50:08.203Z,21.91
2023-05-28T00:52:35.882Z,21.87
2023-05-28T00:55:02.874Z,21.86
2023-05-28T00:57:29.749Z,21.91
2023-05-28T00:59:56.429Z,21.88
2023-05-28T01:02:23.214Z,21.89
2023-05-28T01:04:50.040Z,21.87
2023-05-28T01:07:16.629Z,21.85
2023-05-28T01:09:43.423Z,21.83
2023-05-28T01:12:11.379Z,21.81
2023-05-28T01:14:38.331Z,21.80
2023-05-28T01:17:05.509Z,21.78
2023-05-28T01:19:32.385Z,21.77
2023-05-28T01:22:06.908Z,21.76
2023-05-28T01:24:34.277Z,21.74
2023-05-28T01:27:01.020Z,21.75
2023-05-28T01:29:27.796Z,21.74
2023-05-28T01:31:54.714Z,21.74
2023-05-28T01:34:21.480Z,21.73
2023-05-28T01:36:53.148Z,21.72
2023-05-28T01:39:20.902Z,21.72
2023-05-28T01:41:48.584Z,21.73
2023-05-28T01:44:16.679Z,21.71
2023-05-28T01:46:44.480Z,21.72
2023-05-28T01:49:11.804Z,21.70
2023-05-28T01:51:38.698Z,21.72
2023-05-28T01:54:05.698Z,21.70
2023-05-28T01:56:32.427Z,21.70
2023-05-28T01:58:59.434Z,21.70
2023-05-28T02:01:26.087Z,21.68
2023-05-28T02:03:52.961Z,21.68
2023-05-28T02:06:19.747Z,21.69
2023-05-28T02:08:46.509Z,21.67
2023-05-28T02:11:13.103Z,21.68
2023-05-28T02:13:42.801Z,21.67
2023-05-28T02:16:09.605Z,21.66
2023-05-28T02:18:36.864Z,21.66
2023-05-28T02:21:04.256Z,21.65
2023-05-28T02:23:31.056Z,21.66
2023-05-28T02:25:57.770Z,21.65
2023-05-28T02:28:24.548Z,21.64
2023-05-28T02:30:51.363Z,21.64
2023-05-28T02:33:18.003Z,21.63
2023-05-28T02:35:44.750Z,21.64
2023-05-28T02:38:11.523Z,21.63
2023-05-28T02:40:38.464Z,21.62
2023-05-28T02:43:05.146Z,21.62
2023-05-28T02:45:31.942Z,21.63
2023-05-28T02:47:58.764Z,21.62
2023-05-28T02:50:25.578Z,21.62
2023-05-28T02:52:52.236Z,21.62
2023-05-28T02:55:19.176Z,21.61
2023-05-28T02:57:45.832Z,21.61
2023-05-28T03:00:12.870Z,21.61
2023-05-28T03:02:39.700Z,21.61
2023-05-28T03:05:06.568Z,21.60
2023-05-28T03:07:33.268Z,21.59
2023-05-28T03:10:00.173Z,21.59
2023-05-28T03:12:26.913Z,21.59
2023-05-28T03:14:53.629Z,21.58
2023-05-28T03:17:20.523Z,21.57
2023-05-28T03:19:49.367Z,21.56
2023-05-28T03:22:16.121Z,21.56
2023-05-28T03:24:42.809Z,21.56
2023-05-28T03:27:09.624Z,21.55
2023-05-28T03:29:36.257Z,21.56
2023-05-28T03:32:05.932Z,21.56
2023-05-28T03:34:32.671Z,21.56
2023-05-28T03:37:02.027Z,21.55
2023-05-28T03:39:31.398Z,21.54
2023-05-28T03:41:58.124Z,21.53
2023-05-28T03:44:24.928Z,21.53
2023-05-28T03:46:51.868Z,21.52
2023-05-28T03:49:18.710Z,21.53
2023-05-28T03:51:45.683Z,21.54
2023-05-28T03:54:12.615Z,21.52
2023-05-28T03:56:39.355Z,21.52
2023-05-28T03:59:06.035Z,21.51
2023-05-28T04:01:32.624Z,21.51
2023-05-28T04:03:59.517Z,21.51
2023-05-28T04:06:26.464Z,21.52
2023-05-28T04:08:53.129Z,21.50
2023-05-28T04:11:19.957Z,21.49
2023-05-28T04:13:46.504Z,21.49
2023-05-28T04:16:16.620Z,21.49
2023-05-28T04:18:43.522Z,21.49
2023-05-28T04:21:10.149Z,21.49
2023-05-28T04:23:39.736Z,21.48
2023-05-28T04:26:06.412Z,21.49
2023-05-28T04:28:33.520Z,21.47
2023-05-28T04:31:00.550Z,21.48
2023-05-28T04:33:27.328Z,21.47
2023-05-28T04:35:57.040Z,21.45
2023-05-28T04:38:23.788Z,21.45
2023-05-28T04:40:50.844Z,21.46
2023-05-28T04:43:17.781Z,21.44
2023-05-28T04:45:44.539Z,21.42
2023-05-28T04:48:11.194Z,21.44
2023-05-28T04:50:38.012Z,21.44
2023-05-28T04:53:04.783Z,21.42
2023-05-28T04:55:31.604Z,21.42
2023-05-28T04:57:58.225Z,21.43
2023-05-28T05:00:25.096Z,21.42
2023-05-28T05:02:51.993Z,21.41
2023-05-28T05:05:18.668Z,21.41
2023-05-28T05:07:45.416Z,21.42
2023-05-28T05:10:12.345Z,21.42
2023-05-28T05:12:39.388Z,21.42
2023-05-28T05:15:06.666Z,21.40
2023-05-28T05:17:33.760Z,21.41
2023-05-28T05:20:05.943Z,21.38
2023-05-28T05:22:32.821Z,21.39
2023-05-28T05:24:59.638Z,21.38
2023-05-28T05:27:26.695Z,21.37
2023-05-28T05:29:54.023Z,21.36
2023-05-28T05:32:21.426Z,21.34
2023-05-28T05:34:49.618Z,21.32
2023-05-28T05:37:16.546Z,21.33
2023-05-28T05:39:43.516Z,21.33
2023-05-28T05:42:10.479Z,21.33
2023-05-28T05:44:40.058Z,21.32
2023-05-28T05:47:07.204Z,21.35
2023-05-28T05:49:34.225Z,21.33
2023-05-28T05:52:01.015Z,21.32
2023-05-28T05:54:27.955Z,21.33
2023-05-28T05:56:58.813Z,21.33
2023-05-28T05:59:29.423Z,21.35
2023-05-28T06:01:56.426Z,21.36
2023-05-28T06:04:23.578Z,21.37
2023-05-28T06:06:51.607Z,21.37
2023-05-28T06:09:18.627Z,21.35
2023-05-28T06:11:45.605Z,21.33
2023-05-28T06:14:13.318Z,21.31
2023-05-28T06:16:40.297Z,21.32
2023-05-28T06:19:07.235Z,21.31
2023-05-28T06:21:34.092Z,21.29
2023-05-28T06:24:03.879Z,21.28
2023-05-28T06:26:30.685Z,21.27
2023-05-28T06:29:01.053Z,21.25
2023-05-28T06:31:31.246Z,21.24
2023-05-28T06:33:58.302Z,21.24
2023-05-28T06:36:25.718Z,21.23
2023-05-28T06:38:52.638Z,21.25
2023-05-28T06:41:19.674Z,21.25
2023-05-28T06:43:46.554Z,21.26
2023-05-28T06:46:13.309Z,21.28
2023-05-28T06:48:40.920Z,21.29
2023-05-28T06:51:07.593Z,21.32
2023-05-28T06:53:34.352Z,21.35
2023-05-28T06:56:01.261Z,21.37
2023-05-28T06:58:31.449Z,21.37
2023-05-28T07:00:59.010Z,21.41
2023-05-28T07:03:26.061Z,21.43
2023-05-28T07:05:53.175Z,21.46
2023-05-28T07:08:20.254Z,21.50
2023-05-28T07:10:47.298Z,21.51
2023-05-28T07:13:14.100Z,21.52
2023-05-28T07:15:46.484Z,21.53
2023-05-28T07:18:16.280Z,21.53
2023-05-28T07:20:43.652Z,21.51
2023-05-28T07:23:13.686Z,21.51
2023-05-28T07:25:41.795Z,21.51
2023-05-28T07:28:08.723Z,21.52
2023-05-28T07:30:38.692Z,21.52
2023-05-28T07:33:05.954Z,21.52
2023-05-28T07:35:32.929Z,21.50
2023-05-28T07:38:00.307Z,21.53
2023-05-28T07:40:29.581Z,21.53
2023-05-28T07:42:56.292Z,21.54
2023-05-28T07:45:22.821Z,21.55
2023-05-28T07:47:50.868Z,21.58
2023-05-28T07:50:21.278Z,21.59
2023-05-28T07:52:47.883Z,21.61
2023-05-28T07:55:14.751Z,21.62
2023-05-28T07:57:41.560Z,21.63
2023-05-28T08:00:08.619Z,21.63
2023-05-28T08:02:35.696Z,21.65
2023-05-28T08:05:02.817Z,21.65
2023-05-28T08:07:29.624Z,21.66
2023-05-28T08:09:56.809Z,21.67
2023-05-28T08:12:23.593Z,21.69
2023-05-28T08:14:50.569Z,21.70
2023-05-28T08:17:17.495Z,21.70
2023-05-28T08:19:55.544Z,21.70
2023-05-28T08:22:28.000Z,21.70
2023-05-28T08:24:54.899Z,21.69
2023-05-28T08:27:21.726Z,21.70
2023-05-28T08:29:48.480Z,21.69
2023-05-28T08:32:15.480Z,21.69
2023-05-28T08:34:42.912Z,21.70
2023-05-28T08:37:10.150Z,21.71
2023-05-28T08:39:37.332Z,21.72
2023-05-28T08:42:08.035Z,21.73
2023-05-28T08:44:35.814Z,21.73
2023-05-28T08:47:02.794Z,21.73
2023-05-28T08:49:33.937Z,21.73
2023-05-28T08:52:02.184Z,21.74
2023-05-28T08:54:32.084Z,21.73
2023-05-28T08:57:02.714Z,21.75
2023-05-28T08:59:29.687Z,21.75
2023-05-28T09:01:57.940Z,21.75
2023-05-28T09:04:30.049Z,21.73
2023-05-28T09:06:56.674Z,21.70
2023-05-28T09:09:24.655Z,21.69
2023-05-28T09:11:51.320Z,21.66
2023-05-28T09:14:19.629Z,21.64
2023-05-28T09:16:46.346Z,21.64
2023-05-28T09:19:16.055Z,21.65
2023-05-28T09:21:55.699Z,21.65
2023-05-28T09:24:25.626Z,21.64
2023-05-28T09:26:55.237Z,21.64
2023-05-28T09:29:21.828Z,21.66
2023-05-28T09:31:55.456Z,21.65
2023-05-28T09:34:22.130Z,21.62
2023-05-28T09:36:52.339Z,21.62
2023-05-28T09:39:19.123Z,21.62
2023-05-28T09:41:51.576Z,21.61
2023-05-28T09:44:21.042Z,21.60
2023-05-28T09:46:47.914Z,21.60
2023-05-28T09:49:17.252Z,21.59
2023-05-28T09:51:48.817Z,21.57
2023-05-28T09:54:15.561Z,21.58
2023-05-28T09:56:46.880Z,21.59
2023-05-28T09:59:18.441Z,21.60
2023-05-28T10:01:52.293Z,21.62
2023-05-28T10:04:20.272Z,21.63
2023-05-28T10:06:47.433Z,21.63
2023-05-28T10:09:15.958Z,21.63
2023-05-28T10:11:55.805Z,21.64
2023-05-28T10:14:27.124Z,21.62
2023-05-28T10:16:54.241Z,21.64
2023-05-28T10:19:25.834Z,21.64
2023-05-28T10:21:56.741Z,21.65
2023-05-28T10:24:30.360Z,21.64
2023-05-28T10:27:00.207Z,21.64
2023-05-28T10:29:27.154Z,21.65
2023-05-28T10:32:06.099Z,21.66
2023-05-28T10:34:36.731Z,21.66
2023-05-28T10:37:04.857Z,21.64
2023-05-28T10:39:44.884Z,21.64
2023-05-28T10:42:15.160Z,21.64
2023-05-28T10:44:53.868Z,21.64
2023-05-28T10:47:23.569Z,21.65
2023-05-28T10:50:06.810Z,21.65
2023-05-28T10:52:40.888Z,21.67
2023-05-28T10:55:12.924Z,21.66
2023-05-28T10:57:49.143Z,21.67
2023-05-28T11:00:28.954Z,21.66
2023-05-28T11:02:58.217Z,21.68
2023-05-28T11:05:25.789Z,21.68
2023-05-28T11:07:54.153Z,21.70
2023-05-28T11:10:21.077Z,21.71
2023-05-28T11:12:48.962Z,21.72
2023-05-28T11:15:15.850Z,21.72
2023-05-28T11:17:42.936Z,21.72
2023-05-28T11:20:20.448Z,21.72
2023-05-28T11:22:50.119Z,21.73
2023-05-28T11:25:17.176Z,21.73
2023-05-28T11:27:44.448Z,21.73
2023-05-28T11:30:13.216Z,21.74
2023-05-28T11:32:42.849Z,21.74
2023-05-28T11:35:16.184Z,21.74
2023-05-28T11:37:44.099Z,21.74
2023-05-28T11:40:16.757Z,21.75
2023-05-28T11:42:46.068Z,21.76
2023-05-28T11:45:15.535Z,21.75
2023-05-28T11:47:42.295Z,21.76
2023-05-28T11:50:10.399Z,21.75
2023-05-28T11:52:37.480Z,21.77
2023-05-28T11:55:08.211Z,21.76
2023-05-28T11:57:38.581Z,21.77
2023-05-28T12:00:07.393Z,21.80
2023-05-28T12:02:37.698Z,21.79
2023-05-28T12:07:38.210Z,21.78
2023-05-28T12:12:36.340Z,21.79
2023-05-28T12:15:03.957Z,21.80
2023-05-28T12:17:34.986Z,21.82
2023-05-28T12:20:02.754Z,21.83
2023-05-28T12:22:29.904Z,21.82
2023-05-28T12:24:56.813Z,21.83
2023-05-28T12:27:23.789Z,21.82
2023-05-28T12:29:51.058Z,21.83
2023-05-28T12:32:20.631Z,21.83
2023-05-28T12:34:50.741Z,21.83
2023-05-28T12:37:17.758Z,21.84
2023-05-28T12:39:44.777Z,21.84
2023-05-28T12:42:17.096Z,21.84
2023-05-28T12:44:43.868Z,21.85
2023-05-28T12:47:14.514Z,21.84
2023-05-28T12:49:41.561Z,21.85
2023-05-28T12:52:11.789Z,21.85
2023-05-28T12:54:41.832Z,21.85
2023-05-28T12:57:18.144Z,21.86
2023-05-28T12:59:45.182Z,21.86
2023-05-28T13:02:12.033Z,21.87
2023-05-28T13:04:41.582Z,21.87
2023-05-28T13:07:11.401Z,21.86
2023-05-28T13:09:41.220Z,21.87
2023-05-28T13:12:08.269Z,21.87
2023-05-28T13:14:38.622Z,21.86
2023-05-28T13:17:05.536Z,21.86
2023-05-28T13:19:32.327Z,21.86
2023-05-28T13:21:59.452Z,21.84
2023-05-28T13:24:40.027Z,21.85
2023-05-28T13:27:13.388Z,21.85
2023-05-28T13:29:40.260Z,21.85
2023-05-28T13:32:07.414Z,21.84
2023-05-28T13:34:34.368Z,21.83
2023-05-28T13:37:01.274Z,21.84
2023-05-28T13:39:28.169Z,21.84
2023-05-28T13:41:55.042Z,21.84
2023-05-28T13:44:21.971Z,21.85
2023-05-28T13:46:48.895Z,21.83
2023-05-28T13:49:19.285Z,21.86
2023-05-28T13:51:49.597Z,21.85
2023-05-28T13:54:16.434Z,21.86
2023-05-28T13:56:43.877Z,21.86
2023-05-28T13:59:10.766Z,21.85
2023-05-28T14:01:40.706Z,21.86
2023-05-28T14:04:07.822Z,21.86
2023-05-28T14:06:38.514Z,21.86
2023-05-28T14:09:05.455Z,21.86
2023-05-28T14:11:54.027Z,21.86
2023-05-28T14:14:22.867Z,21.87
2023-05-28T14:16:50.197Z,21.88
2023-05-28T14:19:18.589Z,21.87
2023-05-28T14:21:45.875Z,21.87
2023-05-28T14:24:12.479Z,21.88
2023-05-28T14:26:39.187Z,21.89
2023-05-28T14:29:06.416Z,21.89
2023-05-28T14:31:33.497Z,21.90
2023-05-28T14:34:03.365Z,21.89
2023-05-28T14:36:30.749Z,21.89
2023-05-28T14:39:00.413Z,21.89
2023-05-28T14:41:27.431Z,21.89
2023-05-28T14:43:57.405Z,21.88
2023-05-28T14:46:24.465Z,21.89
2023-05-28T14:48:51.361Z,21.89
2023-05-28T14:51:17.948Z,21.89
2023-05-28T14:53:44.505Z,21.89
2023-05-28T14:56:11.016Z,21.89
2023-05-28T14:58:37.569Z,21.90
2023-05-28T15:01:04.600Z,21.88
2023-05-28T15:03:31.780Z,21.89
2023-05-28T15:05:58.667Z,21.89
2023-05-28T15:08:25.356Z,21.89
2023-05-28T15:10:51.945Z,21.90
2023-05-28T15:13:18.806Z,21.89
2023-05-28T15:15:45.518Z,21.89
2023-05-28T15:18:12.197Z,21.90
2023-05-28T15:20:38.889Z,21.90
2023-05-28T15:23:05.523Z,21.89
2023-05-28T15:25:34.919Z,21.89
2023-05-28T15:28:02.072Z,21.90
2023-05-28T15:30:28.735Z,21.89
2023-05-28T15:32:56.635Z,21.89
2023-05-28T15:35:23.302Z,21.89
2023-05-28T15:37:50.055Z,21.89
2023-05-28T15:40:16.799Z,21.90
2023-05-28T15:42:44.552Z,21.89
2023-05-28T15:45:11.392Z,21.89
2023-05-28T15:47:37.975Z,21.89
2023-05-28T15:50:04.788Z,21.89
2023-05-28T15:52:31.496Z,21.88
2023-05-28T15:54:58.267Z,21.89
2023-05-28T15:57:24.940Z,21.88
2023-05-28T15:59:51.604Z,21.87
2023-05-28T16:02:22.977Z,21.88
2023-05-28T16:04:49.645Z,21.89
2023-05-28T16:07:16.516Z,21.89
2023-05-28T16:09:43.708Z,21.89
2023-05-28T16:12:12.228Z,21.88
2023-05-28T16:14:41.248Z,21.88
2023-05-28T16:17:09.095Z,21.88
2023-05-28T16:19:35.772Z,21.88
2023-05-28T16:22:02.473Z,21.88
2023-05-28T16:24:29.058Z,21.89
2023-05-28T16:26:55.774Z,21.88
2023-05-28T16:29:22.444Z,21.88
2023-05-28T16:31:49.195Z,21.87
2023-05-28T16:34:16.312Z,21.88
2023-05-28T16:36:46.040Z,21.87
2023-05-28T16:39:12.657Z,21.87
2023-05-28T16:41:39.305Z,21.87
2023-05-28T16:44:05.959Z,21.87
2023-05-28T16:46:32.587Z,21.87
2023-05-28T16:48:59.326Z,21.87
2023-05-28T16:51:25.917Z,21.86
2023-05-28T16:53:52.461Z,21.86
2023-05-28T16:56:19.007Z,21.86
2023-05-28T16:58:45.667Z,21.85
2023-05-28T17:01:12.218Z,21.86
2023-05-28T17:03:41.972Z,21.85
2023-05-28T17:06:08.591Z,21.84
2023-05-28T17:08:35.278Z,21.85
2023-05-28T17:11:01.889Z,21.84
2023-05-28T17:13:28.599Z,21.84
2023-05-28T17:15:56.902Z,21.84
2023-05-28T17:18:23.543Z,21.84
2023-05-28T17:20:50.169Z,21.83
2023-05-28T17:23:22.950Z,21.83
2023-05-28T17:25:52.657Z,21.82
2023-05-28T17:28:19.297Z,21.82
2023-05-28T17:30:45.859Z,21.82
2023-05-28T17:33:12.520Z,21.81
2023-05-28T17:35:39.113Z,21.81
2023-05-28T17:38:06.214Z,21.81
2023-05-28T17:40:32.853Z,21.79
2023-05-28T17:42:59.382Z,21.77
2023-05-28T17:45:25.885Z,21.78
2023-05-28T17:47:52.561Z,21.77
2023-05-28T17:50:19.120Z,21.77
2023-05-28T17:52:49.152Z,21.76
2023-05-28T17:55:19.152Z,21.76
2023-05-28T17:57:46.402Z,21.77
2023-05-28T18:00:13.639Z,21.77
2023-05-28T18:02:41.078Z,21.77
2023-05-28T18:05:11.237Z,21.78
2023-05-28T18:07:38.510Z,21.78
2023-05-28T18:10:07.135Z,21.78
2023-05-28T18:12:35.041Z,21.77
2023-05-28T18:15:02.218Z,21.76
2023-05-28T18:17:29.126Z,21.73
2023-05-28T18:19:56.126Z,21.73
2023-05-28T18:22:22.926Z,21.73
2023-05-28T18:24:52.677Z,21.72
2023-05-28T18:27:21.269Z,21.72
2023-05-28T18:29:48.746Z,21.75
2023-05-28T18:32:15.698Z,21.74
2023-05-28T18:34:43.192Z,21.73
2023-05-28T18:37:09.940Z,21.72
2023-05-28T18:39:36.979Z,21.71
2023-05-28T18:42:03.943Z,21.70
2023-05-28T18:44:30.873Z,21.68
2023-05-28T18:46:57.893Z,21.67
2023-05-28T18:49:27.857Z,21.69
2023-05-28T18:51:54.826Z,21.67
2023-05-28T18:54:21.931Z,21.67
2023-05-28T18:56:52.218Z,21.68
2023-05-28T18:59:19.091Z,21.69
2023-05-28T19:01:46.061Z,21.69
2023-05-28T19:04:13.206Z,21.69
2023-05-28T19:06:42.396Z,21.67
2023-05-28T19:09:09.488Z,21.68
2023-05-28T19:11:36.281Z,21.68
2023-05-28T19:14:03.367Z,21.68
2023-05-28T19:16:31.001Z,21.70
2023-05-28T19:18:57.858Z,21.70
2023-05-28T19:21:27.634Z,21.70
2023-05-28T19:23:54.822Z,21.70
2023-05-28T19:26:24.701Z,21.70
2023-05-28T19:28:51.464Z,21.71
2023-05-28T19:31:23.975Z,21.70
2023-05-28T19:33:54.850Z,21.70
2023-05-28T19:36:21.913Z,21.69
2023-05-28T19:38:48.846Z,21.68
2023-05-28T19:41:15.974Z,21.68
2023-05-28T19:43:42.968Z,21.69
2023-05-28T19:46:09.848Z,21.68
2023-05-28T19:48:39.823Z,21.68
2023-05-28T19:51:06.693Z,21.67
2023-05-28T19:53:36.770Z,21.67
2023-05-28T19:56:06.104Z,21.67
2023-05-28T19:58:33.107Z,21.67
2023-05-28T20:01:04.105Z,21.66
2023-05-28T20:03:34.573Z,21.66
2023-05-28T20:06:01.318Z,21.66
2023-05-28T20:08:28.307Z,21.66
2023-05-28T20:10:55.101Z,21.66
2023-05-28T20:13:21.812Z,21.65
2023-05-28T20:15:54.171Z,21.64
2023-05-28T20:18:21.316Z,21.64
2023-05-28T20:20:51.226Z,21.64
2023-05-28T20:23:18.150Z,21.63
2023-05-28T20:25:47.377Z,21.62
2023-05-28T20:28:14.075Z,21.63
2023-05-28T20:30:40.658Z,21.62
2023-05-28T20:33:07.534Z,21.62
2023-05-28T20:35:37.257Z,21.62
2023-05-28T20:38:05.168Z,21.63
2023-05-28T20:40:37.784Z,21.63
2023-05-28T20:43:04.624Z,21.63
2023-05-28T20:45:31.654Z,21.62
2023-05-28T20:48:01.725Z,21.62
2023-05-28T20:50:33.364Z,21.61
2023-05-28T20:53:01.223Z,21.61
2023-05-28T20:55:31.093Z,21.62
2023-05-28T20:57:57.927Z,21.62
2023-05-28T21:00:24.791Z,21.62
2023-05-28T21:02:52.676Z,21.62
2023-05-28T21:05:19.721Z,21.61
2023-05-28T21:07:46.474Z,21.60
2023-05-28T21:10:13.335Z,21.61
2023-05-28T21:12:43.073Z,21.60
2023-05-28T21:15:10.200Z,21.60
2023-05-28T21:17:36.921Z,21.59
2023-05-28T21:20:03.989Z,21.58
2023-05-28T21:22:30.740Z,21.56
2023-05-28T21:24:57.512Z,21.57
2023-05-28T21:27:24.337Z,21.56
2023-05-28T21:29:51.100Z,21.56
2023-05-28T21:32:18.686Z,21.55
2023-05-28T21:34:45.605Z,21.54
2023-05-28T21:37:12.661Z,21.55
2023-05-28T21:39:45.836Z,21.55
2023-05-28T21:42:15.682Z,21.55
2023-05-28T21:44:45.836Z,21.54
2023-05-28T21:47:12.649Z,21.53
2023-05-28T21:49:39.402Z,21.54
2023-05-28T21:52:06.308Z,21.53
2023-05-28T21:54:39.263Z,21.53
2023-05-28T21:57:06.022Z,21.53
2023-05-28T21:59:32.817Z,21.53
2023-05-28T22:02:00.024Z,21.53
2023-05-28T22:04:27.081Z,21.53
2023-05-28T22:06:53.801Z,21.52
2023-05-28T22:09:20.549Z,21.52
2023-05-28T22:11:47.462Z,21.52
2023-05-28T22:14:19.175Z,21.52
2023-05-28T22:16:46.321Z,21.53
2023-05-28T22:19:13.608Z,21.52
2023-05-28T22:21:41.975Z,21.53
2023-05-28T22:24:12.085Z,21.53
2023-05-28T22:26:44.513Z,21.53
2023-05-28T22:29:14.296Z,21.53
2023-05-28T22:31:42.593Z,21.52
2023-05-28T22:34:12.848Z,21.51
2023-05-28T22:36:39.742Z,21.52
2023-05-28T22:39:06.434Z,21.51
2023-05-28T22:41:36.328Z,21.51
2023-05-28T22:44:09.038Z,21.51
2023-05-28T22:46:40.386Z,21.51
2023-05-28T22:49:14.480Z,21.50
2023-05-28T22:51:42.865Z,21.51
2023-05-28T22:54:13.621Z,21.50
2023-05-28T22:56:43.526Z,21.50
2023-05-28T22:59:13.516Z,21.50
2023-05-28T23:01:44.552Z,21.50
2023-05-28T23:04:14.736Z,21.50
2023-05-28T23:06:47.396Z,21.50
2023-05-28T23:09:14.130Z,21.49
2023-05-28T23:11:41.071Z,21.50
2023-05-28T23:14:07.911Z,21.50
2023-05-28T23:16:38.074Z,21.49
2023-05-28T23:19:05.023Z,21.48
2023-05-28T23:21:31.954Z,21.49
2023-05-28T23:23:59.201Z,21.50
2023-05-28T23:26:25.940Z,21.50
2023-05-28T23:28:58.982Z,21.50
2023-05-28T23:31:28.937Z,21.48
2023-05-28T23:33:57.883Z,21.48
2023-05-28T23:36:29.800Z,21.49
2023-05-28T23:38:56.605Z,21.49
2023-05-28T23:41:26.225Z,21.48
2023-05-28T23:43:53.157Z,21.47
2023-05-28T23:46:19.826Z,21.47
2023-05-28T23:48:46.852Z,21.47
2023-05-28T23:51:13.850Z,21.47
2023-05-28T23:53:43.142Z,21.46
2023-05-28T23:56:12.808Z,21.46
2023-05-28T23:58:39.624Z,21.45
